Time;durP1;ratioP1;P1;durP2;ratioP2;P2;SDS_P1;SDS_P2;PMS_P1;PMS_P2;Temp;Humidity;BMP_temperature;BMP_pressure;BME280_temperature;BME280_humidity;BME280_pressure;Samples;Min_cycle;Max_cycle;Signal;HPM_P1;HPM_P2
2021/09/16 00:00:14;;;;;;;0.00;0.00;;;16.90;1.00;;;;;;5059004;28;20647;-80
2021/09/16 00:02:43;;;;;;;0.10;0.10;;;17.00;1.00;;;;;;5061323;28;20036;-80
2021/09/16 00:05:10;;;;;;;0.47;0.47;;;16.90;1.00;;;;;;5062257;28;20094;-80
2021/09/16 00:07:36;;;;;;;0.52;0.43;;;16.80;1.00;;;;;;5063025;28;20036;-80
2021/09/16 00:10:03;;;;;;;0.15;0.15;;;16.70;1.00;;;;;;5059942;28;20093;-80
2021/09/16 00:12:29;;;;;;;0.47;0.47;;;16.70;1.00;;;;;;5059671;28;20119;-80
2021/09/16 00:14:55;;;;;;;0.00;0.00;;;16.80;30.00;;;;;;5059390;28;20037;-80
2021/09/16 00:17:20;;;;;;;0.10;0.10;;;16.80;26.50;;;;;;5060191;28;20029;-80
2021/09/16 00:19:46;;;;;;;0.20;0.20;;;16.80;5.40;;;;;;5061533;28;20196;-80
2021/09/16 00:22:12;;;;;;;1.83;0.97;;;16.70;13.60;;;;;;5059019;28;20076;-81
2021/09/16 00:24:38;;;;;;;0.00;0.00;;;16.80;18.60;;;;;;5060474;28;20029;-80
2021/09/16 00:27:04;;;;;;;0.33;0.30;;;16.70;1.00;;;;;;5057698;28;20082;-80
2021/09/16 00:29:30;;;;;;;0.23;0.20;;;16.70;1.00;;;;;;5060231;28;20299;-80
2021/09/16 00:31:56;;;;;;;0.15;0.15;;;16.70;8.80;;;;;;5061057;28;20275;-80
2021/09/16 00:34:21;;;;;;;0.37;0.37;;;16.70;1.00;;;;;;5061872;28;20032;-81
2021/09/16 00:36:47;;;;;;;0.10;0.10;;;16.80;1.00;;;;;;5059280;28;20119;-80
2021/09/16 00:39:13;;;;;;;0.03;0.03;;;16.80;1.00;;;;;;5059351;28;20028;-81
2021/09/16 00:41:39;;;;;;;0.40;0.30;;;16.90;99.90;;;;;;5059527;28;20043;-80
2021/09/16 00:44:05;;;;;;;0.20;0.20;;;16.90;99.90;;;;;;5059869;28;20110;-80
2021/09/16 00:46:30;;;;;;;0.10;0.10;;;17.00;99.90;;;;;;5059816;28;20199;-80
2021/09/16 00:48:56;;;;;;;0.07;0.07;;;16.90;99.90;;;;;;5060028;28;20058;-80
2021/09/16 00:51:22;;;;;;;1.70;0.20;;;16.80;99.90;;;;;;5058527;28;20602;-79
2021/09/16 00:53:49;;;;;;;1.23;0.37;;;16.80;99.90;;;;;;5059484;28;20032;-80
2021/09/16 00:56:15;;;;;;;0.10;0.10;;;16.70;99.90;;;;;;5060725;28;20032;-80
2021/09/16 00:58:42;;;;;;;0.10;0.10;;;16.70;99.90;;;;;;5060674;28;20139;-80
2021/09/16 01:01:08;;;;;;;0.00;0.00;;;16.70;99.90;;;;;;5056090;28;20114;-80
2021/09/16 01:03:34;;;;;;;0.30;0.30;;;16.60;99.90;;;;;;5059838;28;20032;-80
2021/09/16 01:06:01;;;;;;;0.00;0.00;;;16.60;99.90;;;;;;5059556;28;20032;-80
2021/09/16 01:08:26;;;;;;;;;;;16.50;1.00;;;;;;5060042;28;20032;-80
2021/09/16 01:10:52;;;;;;;0.03;0.03;;;16.50;1.00;;;;;;5048783;28;19970;-80
2021/09/16 01:13:18;;;;;;;0.57;0.57;;;16.40;1.00;;;;;;5049029;28;20028;-81
2021/09/16 01:15:45;;;;;;;0.33;0.17;;;16.30;1.00;;;;;;5058417;28;20037;-81
2021/09/16 01:18:14;;;;;;;0.52;0.52;;;16.20;1.00;;;;;;5059403;28;20033;-81
2021/09/16 01:20:40;;;;;;;0.00;0.00;;;16.20;19.50;;;;;;5058359;28;20077;-81
2021/09/16 01:23:06;;;;;;;0.00;0.00;;;16.20;99.90;;;;;;5058789;28;20033;-80
2021/09/16 01:25:32;;;;;;;0.60;0.60;;;16.20;1.00;;;;;;5059165;28;20074;-80
2021/09/16 01:27:59;;;;;;;;;;;16.10;99.90;;;;;;5059762;28;20043;-80
2021/09/16 01:30:25;;;;;;;0.43;0.43;;;16.10;99.90;;;;;;5058437;28;19927;-82
2021/09/16 01:32:52;;;;;;;0.08;0.08;;;16.20;99.90;;;;;;5058790;28;20085;-81
2021/09/16 01:35:18;;;;;;;0.20;0.20;;;16.10;99.90;;;;;;5059037;28;20074;-80
2021/09/16 01:37:44;;;;;;;0.10;0.10;;;16.10;99.90;;;;;;5060453;28;20028;-80
2021/09/16 01:40:10;;;;;;;0.53;0.43;;;16.00;99.90;;;;;;5058871;28;20039;-81
2021/09/16 01:42:43;;;;;;;0.03;0.03;;;16.00;99.90;;;;;;5058894;28;20404;-80
2021/09/16 01:45:13;;;;;;;0.20;0.20;;;16.00;1.00;;;;;;5059139;28;20043;-81
2021/09/16 01:47:40;;;;;;;0.10;0.10;;;16.10;99.90;;;;;;5058837;28;20032;-81
2021/09/16 01:50:06;;;;;;;0.20;0.20;;;16.20;37.10;;;;;;5059112;28;20062;-80
2021/09/16 01:52:32;;;;;;;0.25;0.25;;;16.30;1.00;;;;;;5059660;28;20036;-80
2021/09/16 01:54:57;;;;;;;0.10;0.10;;;16.40;1.00;;;;;;5057206;28;20032;-80
2021/09/16 01:57:23;;;;;;;0.10;0.10;;;16.40;99.90;;;;;;5058515;28;20123;-81
2021/09/16 01:59:49;;;;;;;0.00;0.00;;;16.40;99.90;;;;;;5059050;28;20052;-80
2021/09/16 02:02:14;;;;;;;0.00;0.00;;;16.40;99.90;;;;;;5057791;28;20032;-80
2021/09/16 02:04:40;;;;;;;0.10;0.10;;;16.40;99.90;;;;;;5059399;28;20029;-80
2021/09/16 02:07:06;;;;;;;0.03;0.03;;;16.40;99.90;;;;;;5058867;28;20036;-80
2021/09/16 02:09:31;;;;;;;0.20;0.10;;;16.40;99.90;;;;;;5058178;28;20029;-81
2021/09/16 02:11:57;;;;;;;0.00;0.00;;;16.30;99.90;;;;;;5058479;28;20032;-81
2021/09/16 02:14:22;;;;;;;0.10;0.10;;;16.20;99.90;;;;;;5058672;28;20029;-81
2021/09/16 02:16:48;;;;;;;0.13;0.13;;;16.10;1.40;;;;;;5048984;28;20111;-80
2021/09/16 02:19:14;;;;;;;0.00;0.00;;;16.10;99.90;;;;;;5050063;28;20048;-80
2021/09/16 02:21:39;;;;;;;0.10;0.10;;;16.10;87.90;;;;;;5058749;28;20089;-80
2021/09/16 02:24:05;;;;;;;0.43;0.30;;;16.10;99.90;;;;;;5058057;28;20036;-80
2021/09/16 02:26:31;;;;;;;0.53;0.30;;;;;;;;;;5057717;28;20052;-79
2021/09/16 02:28:57;;;;;;;0.20;0.20;;;16.10;99.90;;;;;;5058983;28;20485;-79
2021/09/16 02:31:23;;;;;;;0.00;0.00;;;;;;;;;;5058436;28;20036;-80
2021/09/16 02:33:49;;;;;;;0.70;0.10;;;;;;;;;;5056880;28;20111;-80
2021/09/16 02:36:15;;;;;;;0.10;0.10;;;;;;;;;;5058073;28;20036;-80
2021/09/16 02:38:41;;;;;;;0.60;0.20;;;16.10;99.90;;;;;;5057774;28;20025;-79
2021/09/16 02:41:07;;;;;;;0.20;0.20;;;16.10;42.20;;;;;;5057966;28;20907;-80
2021/09/16 02:43:32;;;;;;;0.60;0.60;;;16.10;99.90;;;;;;5059848;28;20275;-79
2021/09/16 02:45:58;;;;;;;0.10;0.10;;;;;;;;;;5059018;28;20047;-80
2021/09/16 02:48:24;;;;;;;2.23;0.13;;;16.10;99.90;;;;;;5058147;28;20551;-80
2021/09/16 02:50:50;;;;;;;11.03;0.50;;;16.10;1.00;;;;;;5056813;28;20394;-81
2021/09/16 02:53:15;;;;;;;0.10;0.10;;;16.10;1.00;;;;;;5057543;28;20037;-80
2021/09/16 02:55:41;;;;;;;1.80;0.30;;;16.20;1.00;;;;;;5060391;28;20048;-80
2021/09/16 02:58:07;;;;;;;0.30;0.30;;;16.10;99.90;;;;;;5058238;28;20032;-80
2021/09/16 03:00:32;;;;;;;0.20;0.20;;;16.10;1.00;;;;;;5058024;28;20473;-80
2021/09/16 03:02:59;;;;;;;1.30;1.20;;;;;;;;;;5060193;28;20028;-79
2021/09/16 03:05:24;;;;;;;0.00;0.00;;;16.20;34.30;;;;;;5058988;28;20032;-80
2021/09/16 03:07:50;;;;;;;0.00;0.00;;;16.20;99.90;;;;;;5058485;28;20081;-80
2021/09/16 03:10:16;;;;;;;0.60;0.60;;;;;;;;;;5061664;28;20028;-80
2021/09/16 03:12:42;;;;;;;0.10;0.10;;;16.20;99.90;;;;;;5061474;28;20781;-81
2021/09/16 03:15:09;;;;;;;0.37;0.37;;;16.10;99.90;;;;;;5062802;28;20086;-80
2021/09/16 03:17:35;;;;;;;;;;;16.10;99.90;;;;;;5062886;28;20060;-81
2021/09/16 03:20:01;;;;;;;;;;;16.10;62.70;;;;;;5056602;28;19957;-78
2021/09/16 03:22:27;;;;;;;0.28;0.28;;;16.10;15.00;;;;;;5062504;28;19912;-79
2021/09/16 03:24:53;;;;;;;0.20;0.20;;;16.10;54.00;;;;;;5060325;28;20090;-79
2021/09/16 03:27:19;;;;;;;0.00;0.00;;;;;;;;;;5057339;28;20087;-80
2021/09/16 03:29:45;;;;;;;0.10;0.10;;;;;;;;;;5048950;28;20029;-79
2021/09/16 03:32:11;;;;;;;0.93;0.13;;;;;;;;;;5062753;28;20102;-79
2021/09/16 03:34:36;;;;;;;0.20;0.20;;;16.10;99.90;;;;;;5062773;28;20275;-80
2021/09/16 03:37:02;;;;;;;0.30;0.30;;;;;;;;;;5060706;28;20817;-80
2021/09/16 03:39:28;;;;;;;0.13;0.13;;;;;;;;;;5051397;28;20033;-80
2021/09/16 03:41:54;;;;;;;0.05;0.05;;;;;;;;;;5061224;28;20043;-80
2021/09/16 03:44:20;;;;;;;0.10;0.10;;;;;;;;;;5061100;28;20032;-79
2021/09/16 03:46:47;;;;;;;0.30;0.30;;;;;;;;;;5063016;28;20044;-79
2021/09/16 03:49:12;;;;;;;0.00;0.00;;;16.00;99.90;;;;;;5058184;28;20528;-79
2021/09/16 03:51:38;;;;;;;0.00;0.00;;;;;;;;;;5060663;28;20142;-80
2021/09/16 03:54:04;;;;;;;0.00;0.00;;;;;;;;;;5060544;28;20021;-79
2021/09/16 03:56:31;;;;;;;1.45;0.63;;;;;;;;;;5061399;28;20029;-79
2021/09/16 03:58:57;;;;;;;0.10;0.10;;;;;;;;;;5042611;28;20037;-80
2021/09/16 04:01:23;;;;;;;0.00;0.00;;;;;;;;;;5061301;28;20032;-79
2021/09/16 04:03:49;;;;;;;0.00;0.00;;;;;;;;;;5060124;28;20089;-79
2021/09/16 04:06:15;;;;;;;0.23;0.23;;;;;;;;;;5058798;28;20457;-80
2021/09/16 04:08:41;;;;;;;0.07;0.07;;;;;;;;;;5060858;28;20293;-79
2021/09/16 04:11:07;;;;;;;0.00;0.00;;;;;;;;;;5059923;28;20799;-81
2021/09/16 04:13:33;;;;;;;0.10;0.10;;;;;;;;;;5062098;28;20028;-79
2021/09/16 04:15:59;;;;;;;0.10;0.10;;;;;;;;;;5060527;28;20039;-80
2021/09/16 04:18:25;;;;;;;0.23;0.23;;;;;;;;;;5060191;28;20290;-80
2021/09/16 04:20:51;;;;;;;0.10;0.10;;;;;;;;;;5059555;28;20480;-79
2021/09/16 04:23:17;;;;;;;0.03;0.03;;;;;;;;;;5060343;28;20313;-80
2021/09/16 04:25:43;;;;;;;0.10;0.10;;;;;;;;;;5060531;28;20648;-80
2021/09/16 04:28:09;;;;;;;0.10;0.10;;;;;;;;;;5059564;28;20527;-79
2021/09/16 04:30:35;;;;;;;0.53;0.53;;;;;;;;;;5060552;28;21869;-80
2021/09/16 04:33:01;;;;;;;0.27;0.13;;;;;;;;;;5061086;28;20795;-80
2021/09/16 04:35:27;;;;;;;0.20;0.20;;;;;;;;;;5060518;28;20348;-80
2021/09/16 04:37:53;;;;;;;0.00;0.00;;;;;;;;;;5060870;28;20275;-80
2021/09/16 04:40:19;;;;;;;0.00;0.00;;;;;;;;;;5060018;28;20028;-80
2021/09/16 04:42:46;;;;;;;0.60;0.47;;;;;;;;;;5057458;28;20078;-80
2021/09/16 04:45:12;;;;;;;0.20;0.20;;;;;;;;;;5056904;28;20049;-79
2021/09/16 04:47:40;;;;;;;0.10;0.10;;;;;;;;;;5057901;28;20038;-80
2021/09/16 04:50:08;;;;;;;0.10;0.10;;;;;;;;;;5060270;28;22276;-80
2021/09/16 04:52:34;;;;;;;0.20;0.20;;;;;;;;;;5056902;28;20025;-80
2021/09/16 04:55:00;;;;;;;0.10;0.10;;;;;;;;;;5060074;28;20028;-80
2021/09/16 04:57:26;;;;;;;1.45;0.47;;;;;;;;;;5062734;28;20028;-81
2021/09/16 04:59:53;;;;;;;0.10;0.10;;;;;;;;;;5060598;28;20041;-80
2021/09/16 05:02:19;;;;;;;0.30;0.30;;;;;;;;;;5056429;28;20028;-80
2021/09/16 05:04:45;;;;;;;1.08;0.85;;;;;;;;;;5061273;28;20047;-80
2021/09/16 05:07:12;;;;;;;1.38;0.52;;;;;;;;;;5059253;28;20104;-80
2021/09/16 05:09:38;;;;;;;0.13;0.13;;;;;;;;;;5059962;28;20028;-81
2021/09/16 05:12:04;;;;;;;0.00;0.00;;;;;;;;;;5058142;28;20032;-80
2021/09/16 05:14:30;;;;;;;0.40;0.40;;;;;;;;;;5058746;28;20271;-80
2021/09/16 05:16:56;;;;;;;0.17;0.13;;;;;;;;;;5058393;28;21633;-81
2021/09/16 05:19:22;;;;;;;0.00;0.00;;;;;;;;;;5058072;28;20056;-81
2021/09/16 05:21:48;;;;;;;0.32;0.20;;;;;;;;;;5057230;28;20036;-81
2021/09/16 05:24:17;;;;;;;0.10;0.10;;;;;;;;;;5055257;28;20032;-81
2021/09/16 05:26:46;;;;;;;2.78;0.95;;;;;;;;;;5057120;28;20163;-81
2021/09/16 05:29:12;;;;;;;0.10;0.10;;;;;;;;;;5058671;28;20678;-80
2021/09/16 05:31:38;;;;;;;0.00;0.00;;;;;;;;;;5058339;28;20095;-81
2021/09/16 05:34:05;;;;;;;1.17;0.82;;;;;;;;;;5057769;28;20335;-80
2021/09/16 05:36:31;;;;;;;0.30;0.30;;;;;;;;;;5043705;28;20038;-80
2021/09/16 05:38:57;;;;;;;0.08;0.08;;;;;;;;;;5052020;28;20041;-80
2021/09/16 05:41:23;;;;;;;0.10;0.10;;;;;;;;;;5061908;28;20048;-80
2021/09/16 05:43:50;;;;;;;0.17;0.17;;;;;;;;;;5060368;28;20475;-80
2021/09/16 05:46:16;;;;;;;0.30;0.30;;;;;;;;;;5058131;28;20032;-80
2021/09/16 05:48:42;;;;;;;0.10;0.10;;;;;;;;;;5057867;28;20036;-79
2021/09/16 05:51:09;;;;;;;2.25;0.93;;;;;;;;;;5057349;28;20072;-79
2021/09/16 05:53:37;;;;;;;0.05;0.05;;;;;;;;;;5042288;28;20040;-78
2021/09/16 05:56:03;;;;;;;0.08;0.08;;;;;;;;;;5060148;28;20040;-81
2021/09/16 05:58:29;;;;;;;0.00;0.00;;;;;;;;;;5059745;28;20131;-80
2021/09/16 06:00:55;;;;;;;0.25;0.25;;;;;;;;;;5056954;28;20047;-79
2021/09/16 06:03:21;;;;;;;0.10;0.10;;;;;;;;;;5038701;28;20031;-81
2021/09/16 06:05:48;;;;;;;0.20;0.20;;;;;;;;;;5057784;28;20494;-81
2021/09/16 06:08:14;;;;;;;0.77;0.40;;;;;;;;;;5059735;28;20463;-81
2021/09/16 06:10:40;;;;;;;0.22;0.22;;;;;;;;;;5059838;28;20301;-80
2021/09/16 06:13:06;;;;;;;0.63;0.22;;;;;;;;;;5057022;28;20029;-80
2021/09/16 06:15:32;;;;;;;0.10;0.10;;;;;;;;;;5056775;28;20033;-80
2021/09/16 06:17:58;;;;;;;0.10;0.10;;;;;;;;;;5057000;28;20547;-81
2021/09/16 06:20:24;;;;;;;0.68;0.68;;;;;;;;;;5062041;28;20040;-80
2021/09/16 06:22:50;;;;;;;0.10;0.10;;;;;;;;;;5052897;28;20034;-82
2021/09/16 06:25:17;;;;;;;0.25;0.25;;;;;;;;;;5048868;28;20033;-82
2021/09/16 06:27:43;;;;;;;0.10;0.10;;;;;;;;;;5052762;28;20036;-83
2021/09/16 06:30:10;;;;;;;0.40;0.40;;;;;;;;;;5057039;28;20508;-82
2021/09/16 06:32:37;;;;;;;2.88;1.27;;;;;;;;;;5060658;28;20037;-82
2021/09/16 06:35:05;;;;;;;1.55;1.45;;;;;;;;;;5045707;28;20111;-82
2021/09/16 06:37:31;;;;;;;0.30;0.30;;;;;;;;;;5059333;28;20056;-82
2021/09/16 06:39:57;;;;;;;0.50;0.50;;;;;;;;;;5053584;28;20036;-82
2021/09/16 06:42:23;;;;;;;0.10;0.10;;;;;;;;;;5056987;28;20355;-82
2021/09/16 06:44:49;;;;;;;0.10;0.10;;;;;;;;;;5060784;28;20322;-83
2021/09/16 06:47:15;;;;;;;1.25;0.85;;;;;;;;;;5056433;28;20029;-83
2021/09/16 06:49:48;;;;;;;0.10;0.10;;;;;;;;;;5060855;28;20048;-84
2021/09/16 06:52:15;;;;;;;0.10;0.10;;;;;;;;;;5061268;28;20037;-83
2021/09/16 06:54:41;;;;;;;;;;;;;;;;;;5061418;28;20029;-84
2021/09/16 06:57:07;;;;;;;0.10;0.10;;;;;;;;;;5060634;28;19974;-83
2021/09/16 06:59:33;;;;;;;0.20;0.20;;;;;;;;;;5063069;28;20025;-79
2021/09/16 07:01:59;;;;;;;0.00;0.00;;;;;;;;;;5063184;28;20119;-80
2021/09/16 07:04:25;;;;;;;0.10;0.10;;;;;;;;;;5060179;28;20567;-80
2021/09/16 07:06:51;;;;;;;0.10;0.10;;;;;;;;;;5060416;28;20028;-81
2021/09/16 07:09:17;;;;;;;0.28;0.28;;;;;;;;;;5060972;28;20033;-80
2021/09/16 07:11:43;;;;;;;0.20;0.20;;;;;;;;;;5054278;28;20044;-79
2021/09/16 07:14:10;;;;;;;2.25;0.70;;;;;;;;;;5063670;28;20048;-79
2021/09/16 07:16:36;;;;;;;0.90;0.77;;;;;;;;;;5063119;28;20029;-78
2021/09/16 07:19:02;;;;;;;0.03;0.03;;;;;;;;;;5060111;28;20497;-82
2021/09/16 07:21:28;;;;;;;0.10;0.10;;;;;;;;;;5061089;28;20024;-83
2021/09/16 07:23:54;;;;;;;0.30;0.30;;;;;;;;;;5060399;28;20068;-82
2021/09/16 07:26:20;;;;;;;0.10;0.10;;;;;;;;;;5064601;28;20111;-83
2021/09/16 07:28:47;;;;;;;0.20;0.20;;;;;;;;;;5063053;28;20036;-84
2021/09/16 07:31:13;;;;;;;5.18;1.80;;;;;;;;;;5060277;28;20124;-83
2021/09/16 07:33:39;;;;;;;1.17;1.00;;;;;;;;;;5060732;28;20083;-83
2021/09/16 07:36:05;;;;;;;0.10;0.10;;;;;;;;;;5060115;28;20090;-83
2021/09/16 07:38:31;;;;;;;0.40;0.40;;;;;;;;;;5063288;28;20107;-83
2021/09/16 07:40:57;;;;;;;0.17;0.17;;;;;;;;;;5063071;28;20575;-84
2021/09/16 07:43:23;;;;;;;0.35;0.35;;;;;;;;;;5061217;28;20115;-83
2021/09/16 07:45:49;;;;;;;0.20;0.20;;;;;;;;;;5060154;28;20017;-83
2021/09/16 07:48:16;;;;;;;0.10;0.10;;;;;;;;;;5059811;28;20116;-83
2021/09/16 07:50:42;;;;;;;;;;;;;;;;;;5061549;28;20057;-83
2021/09/16 07:53:10;;;;;;;0.15;0.15;;;;;;;;;;5062909;28;19908;-83
2021/09/16 07:55:36;;;;;;;0.00;0.00;;;;;;;;;;5061738;28;20025;-83
2021/09/16 07:58:02;;;;;;;0.00;0.00;;;;;;;;;;5059256;28;20078;-83
2021/09/16 08:00:28;;;;;;;0.20;0.20;;;;;;;;;;5059671;28;20032;-83
2021/09/16 08:02:54;;;;;;;0.00;0.00;;;;;;;;;;5059645;28;20407;-83
2021/09/16 08:05:20;;;;;;;0.20;0.20;;;;;;;;;;5063987;28;20108;-83
2021/09/16 08:07:47;;;;;;;0.00;0.00;;;;;;;;;;5062253;28;20064;-84
2021/09/16 08:10:13;;;;;;;0.20;0.20;;;;;;;;;;5059179;28;20050;-83
2021/09/16 08:12:39;;;;;;;0.00;0.00;;;;;;;;;;5059022;28;20029;-82
2021/09/16 08:15:06;;;;;;;0.50;0.35;;;;;;;;;;5059784;28;20402;-82
2021/09/16 08:17:32;;;;;;;;;;;;;;;;;;5062224;28;20555;-84
2021/09/16 08:19:58;;;;;;;0.00;0.00;;;;;;;;;;5062465;28;19977;-83
2021/09/16 08:22:24;;;;;;;0.00;0.00;;;;;;;;;;5060578;28;20111;-83
2021/09/16 08:24:50;;;;;;;10.90;0.70;;;;;;;;;;5058938;28;20032;-82
2021/09/16 08:27:17;;;;;;;0.05;0.05;;;;;;;;;;5058947;28;20028;-83
2021/09/16 08:29:43;;;;;;;0.10;0.10;;;;;;;;;;5060337;28;20037;-83
2021/09/16 08:32:09;;;;;;;0.00;0.00;;;;;;;;;;5061736;28;20555;-83
2021/09/16 08:34:37;;;;;;;0.00;0.00;;;;;;;;;;5029086;28;20482;-82
2021/09/16 08:37:03;;;;;;;0.00;0.00;;;;;;;;;;5057134;28;20032;-84
2021/09/16 08:39:29;;;;;;;0.20;0.20;;;;;;;;;;5041996;28;20104;-83
2021/09/16 08:41:56;;;;;;;0.10;0.10;;;;;;;;;;5058128;28;20540;-83
2021/09/16 08:44:22;;;;;;;0.10;0.10;;;;;;;;;;5062417;28;20762;-83
2021/09/16 08:46:48;;;;;;;0.50;0.50;;;;;;;;;;5061095;28;20144;-83
2021/09/16 08:49:14;;;;;;;1.10;0.30;;;;;;;;;;5058699;28;20024;-84
2021/09/16 08:51:41;;;;;;;0.00;0.00;;;;;;;;;;5055004;28;20053;-84
2021/09/16 08:54:08;;;;;;;1.10;0.15;;;;;;;;;;5048375;28;20028;-83
2021/09/16 08:56:34;;;;;;;0.00;0.00;;;;;;;;;;5060160;28;20624;-83
2021/09/16 08:59:02;;;;;;;2.75;0.25;;;;;;;;;;5061116;28;20020;-81
2021/09/16 09:01:28;;;;;;;0.05;0.05;;;;;;;;;;5059976;28;20032;-82
2021/09/16 09:03:54;;;;;;;0.00;0.00;;;;;;;;;;5058067;28;20539;-83
2021/09/16 09:06:24;;;;;;;0.00;0.00;;;;;;;;;;5040235;28;20459;-83
2021/09/16 09:09:05;;;;;;;0.00;0.00;;;;;;;;;;5057674;28;20116;-84
2021/09/16 09:11:31;;;;;;;0.20;0.20;;;;;;;;;;5028770;28;20040;-83
2021/09/16 09:13:58;;;;;;;0.00;0.00;;;;;;;;;;5047353;28;20025;-85
2021/09/16 09:16:34;;;;;;;0.08;0.08;;;;;;;;;;5059606;28;20033;-83
2021/09/16 09:19:14;;;;;;;0.00;0.00;;;;;;;;;;5057736;28;20039;-83
2021/09/16 09:21:40;;;;;;;0.52;0.40;;;;;;;;;;5057598;28;20173;-83
2021/09/16 09:24:06;;;;;;;0.17;0.17;;;;;;;;;;5057466;28;20417;-84
2021/09/16 09:26:34;;;;;;;0.20;0.20;;;;;;;;;;5060563;28;20041;-83
2021/09/16 09:29:09;;;;;;;0.30;0.10;;;;;;;;;;5060642;28;20028;-83
2021/09/16 09:31:54;;;;;;;0.00;0.00;;;;;;;;;;5048634;28;20120;-84
2021/09/16 09:34:29;;;;;;;0.22;0.22;;;;;;;;;;5049867;28;20033;-83
2021/09/16 09:37:06;;;;;;;0.80;0.28;;;;;;;;;;5055014;28;20123;-83
2021/09/16 09:39:32;;;;;;;0.10;0.10;;;;;;;;;;5057384;28;20028;-84
2021/09/16 09:42:14;;;;;;;0.00;0.00;;;;;;;;;;5057540;28;20039;-84
2021/09/16 09:44:40;;;;;;;0.10;0.10;;;;;;;;;;5059686;28;20032;-83
2021/09/16 09:47:06;;;;;;;0.00;0.00;;;;;;;;;;5060816;28;20093;-84
2021/09/16 09:49:34;;;;;;;0.08;0.00;;;;;;;;;;5059677;28;20044;-83
2021/09/16 09:52:01;;;;;;;0.20;0.20;;;;;;;;;;5057096;28;20067;-83
2021/09/16 09:54:33;;;;;;;0.00;0.00;;;;;;;;;;5057334;28;20028;-83
2021/09/16 09:57:15;;;;;;;0.08;0.08;;;;;;;;;;5057336;28;20433;-83
2021/09/16 10:00:00;;;;;;;0.75;0.25;;;;;;;;;;5058847;28;20028;-83
2021/09/16 10:02:41;;;;;;;0.00;0.00;;;;;;;;;;5046142;28;20033;-84
2021/09/16 10:05:27;;;;;;;0.05;0.05;;;;;;;;;;5060515;28;20405;-83
2021/09/16 10:07:53;;;;;;;0.20;0.20;;;;;;;;;;5059679;28;20119;-83
2021/09/16 10:10:20;;;;;;;0.22;0.20;;;;;;;;;;5058039;28;20127;-83
2021/09/16 10:12:47;;;;;;;0.00;0.00;;;;;;;;;;5057330;28;20036;-83
2021/09/16 10:15:15;;;;;;;0.43;0.43;;;;;;;;;;5057266;28;20037;-83
2021/09/16 10:17:41;;;;;;;1.20;0.68;;;;;;;;;;5059287;28;20025;-83
2021/09/16 10:20:08;;;;;;;0.00;0.00;;;;;;;;;;5064453;28;20039;-83
2021/09/16 10:22:35;;;;;;;0.70;0.52;;;;;;;;;;5063365;28;20033;-83
2021/09/16 10:25:01;;;;;;;0.10;0.08;;;;;;;;;;5061627;28;20079;-83
2021/09/16 10:27:37;;;;;;;0.47;0.35;;;;;;;;;;5061242;28;20085;-83
2021/09/16 10:30:24;;;;;;;0.30;0.30;;;;;;;;;;5061260;28;20049;-84
2021/09/16 10:32:59;;;;;;;0.10;0.10;;;;;;;;;;5044418;28;20040;-83
2021/09/16 10:35:25;;;;;;;1.63;0.63;;;;;;;;;;5049980;28;20032;-83
2021/09/16 10:37:51;;;;;;;2.45;0.85;;;;;;;;;;5063243;28;20036;-83
2021/09/16 10:40:29;;;;;;;0.08;0.08;;;;;;;;;;5058173;28;20531;-84
2021/09/16 10:43:00;;;;;;;0.22;0.20;;;;;;;;;;5060648;28;20167;-84
2021/09/16 10:45:30;;;;;;;0.22;0.15;;;;;;;;;;5059366;28;20035;-83
2021/09/16 10:48:15;;;;;;;0.13;0.08;;;;;;;;;;5050196;28;20032;-83
2021/09/16 10:50:48;;;;;;;0.00;0.00;;;;;;;;;;5061937;28;20611;-83
2021/09/16 10:53:35;;;;;;;0.30;0.30;;;;;;;;;;5065115;28;20105;-84
2021/09/16 10:56:01;;;;;;;7.90;0.82;;;;;;;;;;5063833;28;20040;-84
2021/09/16 10:58:28;;;;;;;0.20;0.20;;;;;;;;;;5062746;28;20021;-83
2021/09/16 11:00:54;;;;;;;0.10;0.10;;;;;;;;;;5060930;28;20591;-83
2021/09/16 11:03:20;;;;;;;0.00;0.00;;;;;;;;;;5057196;28;20029;-83
2021/09/16 11:05:48;;;;;;;0.05;0.05;;;;;;;;;;5047660;28;20580;-84
2021/09/16 11:08:18;;;;;;;0.82;0.20;;;;;;;;;;5064869;28;20107;-83
2021/09/16 11:10:44;;;;;;;0.13;0.13;;;;;;;;;;5062739;28;20044;-84
2021/09/16 11:13:29;;;;;;;0.13;0.13;;;;;;;;;;5060720;28;20032;-82
2021/09/16 11:15:55;;;;;;;0.68;0.20;;;;;;;;;;5060782;28;20708;-83
2021/09/16 11:18:22;;;;;;;0.05;0.03;;;;;;;;;;5060757;28;20043;-83
2021/09/16 11:20:49;;;;;;;0.13;0.13;;;;;;;;;;5060810;28;20041;-83
2021/09/16 11:23:17;;;;;;;0.00;0.00;;;;;;;;;;5064968;28;20069;-83
2021/09/16 11:25:45;;;;;;;0.47;0.45;;;;;;;;;;5063082;28;20404;-83
2021/09/16 11:28:12;;;;;;;2.30;1.20;;;;;;;;;;5059854;28;20039;-82
2021/09/16 11:30:39;;;;;;;0.22;0.10;;;;;;;;;;5059228;28;20569;-84
2021/09/16 11:33:09;;;;;;;0.43;0.10;;;;;;;;;;5060120;28;20488;-84
2021/09/16 11:35:35;;;;;;;0.40;0.40;;;;;;;;;;5062319;28;20127;-83
2021/09/16 11:38:02;;;;;;;0.13;0.13;;;;;;;;;;5062896;28;20032;-84
2021/09/16 11:40:30;;;;;;;3.40;0.43;;;;;;;;;;5057374;28;20127;-84
2021/09/16 11:42:57;;;;;;;0.17;0.17;;;;;;;;;;5053701;28;20525;-83
2021/09/16 11:45:26;;;;;;;0.32;0.32;;;;;;;;;;5051434;28;20408;-83
2021/09/16 11:48:08;;;;;;;0.40;0.40;;;;;;;;;;5050840;28;20032;-84
2021/09/16 11:50:45;;;;;;;0.35;0.30;;;;;;;;;;5048391;28;20062;-84
2021/09/16 11:53:11;;;;;;;1.25;0.55;;;;;;;;;;5047559;28;20056;-84
2021/09/16 11:55:38;;;;;;;0.30;0.13;;;;;;;;;;5049593;28;20504;-83
2021/09/16 11:58:09;;;;;;;0.38;0.38;;;;;;;;;;5050575;28;20114;-84
2021/09/16 12:00:39;;;;;;;0.88;0.25;;;;;;;;;;5054136;28;20119;-84
2021/09/16 12:03:07;;;;;;;0.65;0.65;;;;;;;;;;5059567;28;20111;-83
2021/09/16 12:05:43;;;;;;;0.32;0.32;;;;;;;;;;5048336;28;20035;-83
2021/09/16 12:08:11;;;;;;;0.47;0.47;;;;;;;;;;5047112;28;20021;-84
2021/09/16 12:10:42;;;;;;;3.50;1.10;;;;;;;;;;5050319;28;20032;-83
2021/09/16 12:13:11;;;;;;;0.20;0.20;;;;;;;;;;5050799;28;20040;-83
2021/09/16 12:15:37;;;;;;;0.10;0.10;;;;;;;;;;5050935;28;20032;-84
2021/09/16 12:18:03;;;;;;;0.22;0.22;;;;;;;;;;5050365;28;20036;-84
2021/09/16 12:20:30;;;;;;;0.68;0.63;;;;;;;;;;5047920;28;20102;-85
2021/09/16 12:22:56;;;;;;;;;;;;;;;;;;5049126;28;20156;-84
2021/09/16 12:25:22;;;;;;;;;;;;;;;;;;5060346;28;20616;-84
2021/09/16 12:28:04;;;;;;;0.45;0.10;;;;;;;;;;5039362;28;20798;-84
2021/09/16 12:30:35;;;;;;;0.20;0.20;;;;;;;;;;5050401;28;20068;-84
2021/09/16 12:33:01;;;;;;;2.35;0.65;;;;;;;;;;5046842;28;20060;-83
2021/09/16 12:35:27;;;;;;;0.05;0.05;;;;;;;;;;5061868;28;20033;-84
2021/09/16 12:38:03;;;;;;;0.35;0.35;;;;;;;;;;5030228;28;20029;-83
2021/09/16 12:40:29;;;;;;;;;;;;;;;;;;5047822;28;20036;-84
2021/09/16 12:42:55;;;;;;;;;;;;;;;;;;5053407;28;19990;-83
2021/09/16 12:45:21;;;;;;;0.30;0.30;;;;;;;;;;5049927;28;19913;-84
2021/09/16 12:47:53;;;;;;;0.20;0.10;;;;;;;;;;5049130;28;20064;-83
2021/09/16 12:50:22;;;;;;;3.03;0.57;;;;;;;;;;5045429;28;20131;-84
2021/09/16 12:52:48;;;;;;;0.10;0.10;;;;;;;;;;5060923;28;20033;-83
2021/09/16 12:55:14;;;;;;;0.10;0.10;;;;;;;;;;5050233;28;20031;-82
2021/09/16 12:57:42;;;;;;;;;;;;;;;;;;5049967;28;20036;-83
2021/09/16 13:00:09;;;;;;;0.15;0.10;;;;;;;;;;5049748;28;19918;-83
2021/09/16 13:02:45;;;;;;;0.00;0.00;;;;;;;;;;5047167;28;20400;-83
2021/09/16 13:05:22;;;;;;;0.10;0.00;;;;;;;;;;5046202;28;20040;-84
2021/09/16 13:08:06;;;;;;;0.20;0.20;;;;;;;;;;5061027;28;20035;-83
2021/09/16 13:10:36;;;;;;;0.10;0.10;;;;;;;;;;5049627;28;20040;-83
2021/09/16 13:13:09;;;;;;;0.00;0.00;;;;;;;;;;5049551;28;20048;-83
2021/09/16 13:15:36;;;;;;;0.22;0.20;;;;;;;;;;5048951;28;20040;-83
2021/09/16 13:18:04;;;;;;;0.32;0.28;;;;;;;;;;5049125;28;20513;-83
2021/09/16 13:20:30;;;;;;;0.10;0.10;;;;;;;;;;5046194;28;20028;-83
2021/09/16 13:22:56;;;;;;;0.17;0.17;;;;;;;;;;5047534;28;20039;-83
2021/09/16 13:25:23;;;;;;;0.00;0.00;;;;;;;;;;5058742;28;20486;-83
2021/09/16 13:27:49;;;;;;;0.20;0.20;;;;;;;;;;5052370;28;20119;-83
2021/09/16 13:30:15;;;;;;;0.20;0.20;;;;;;;;;;5048509;28;20045;-83
2021/09/16 13:32:42;;;;;;;0.05;0.05;;;;;;;;;;5047722;28;20044;-83
2021/09/16 13:35:09;;;;;;;0.38;0.35;;;;;;;;;;5046130;28;20120;-83
2021/09/16 13:37:35;;;;;;;0.30;0.30;;;;;;;;;;5048298;28;20573;-83
2021/09/16 13:40:01;;;;;;;0.40;0.28;;;;;;;;;;5051325;28;20573;-83
2021/09/16 13:42:27;;;;;;;0.20;0.20;;;;;;;;;;5057326;28;20124;-83
2021/09/16 13:44:53;;;;;;;0.30;0.30;;;;;;;;;;5059853;28;20401;-82
2021/09/16 13:47:19;;;;;;;0.68;0.55;;;;;;;;;;5044484;28;20056;-83
2021/09/16 13:49:46;;;;;;;0.32;0.32;;;;;;;;;;5048276;28;20064;-83
2021/09/16 13:52:12;;;;;;;2.88;0.50;;;;;;;;;;5033265;28;20040;-83
2021/09/16 13:54:38;;;;;;;0.13;0.13;;;;;;;;;;5048506;28;20398;-83
2021/09/16 13:57:04;;;;;;;0.30;0.30;;;;;;;;;;5048519;28;20055;-83
2021/09/16 13:59:31;;;;;;;0.35;0.35;;;;;;;;;;5045268;28;20039;-83
2021/09/16 14:01:58;;;;;;;0.30;0.28;;;;;;;;;;5046600;28;20029;-83
2021/09/16 14:04:24;;;;;;;0.10;0.10;;;;;;;;;;5058512;28;20033;-83
2021/09/16 14:06:50;;;;;;;0.30;0.30;;;;;;;;;;5051915;28;20508;-83
2021/09/16 14:09:16;;;;;;;0.00;0.00;;;;;;;;;;5049022;28;20040;-83
2021/09/16 14:11:42;;;;;;;0.00;0.00;;;;;;;;;;5046971;28;20032;-84
2021/09/16 14:14:08;;;;;;;0.20;0.20;;;;;;;;;;5044553;28;20041;-84
2021/09/16 14:16:35;;;;;;;0.20;0.20;;;;;;;;;;5040516;28;20151;-83
2021/09/16 14:19:01;;;;;;;0.17;0.17;;;;;;;;;;5034921;28;20029;-83